createdAt,value
2018-11-13T00:00:08.990Z,7.93
2018-11-13T00:02:37.615Z,7.83
2018-11-13T00:05:06.296Z,8.37
2018-11-13T00:07:35.050Z,8.80
2018-11-13T00:10:03.702Z,8.60
2018-11-13T00:12:32.285Z,8.13
2018-11-13T00:15:00.881Z,8.03
2018-11-13T00:17:29.460Z,8.33
2018-11-13T00:19:58.082Z,8.23
2018-11-13T00:22:26.698Z,8.70
2018-11-13T00:24:55.365Z,8.20
2018-11-13T00:27:24.112Z,8.67
2018-11-13T00:29:52.890Z,8.67
2018-11-13T00:32:21.541Z,9.20
2018-11-13T00:34:50.236Z,8.77
2018-11-13T00:37:18.875Z,9.13
2018-11-13T00:39:47.554Z,8.50
2018-11-13T00:42:16.153Z,9.10
2018-11-13T00:44:44.768Z,9.80
2018-11-13T00:47:13.366Z,10.80
2018-11-13T00:49:41.981Z,10.87
2018-11-13T00:52:10.587Z,9.50
2018-11-13T00:54:39.141Z,9.40
2018-11-13T00:57:08.122Z,9.07
2018-11-13T00:59:36.700Z,9.33
2018-11-13T01:02:06.460Z,8.17
2018-11-13T01:04:34.727Z,8.60
2018-11-13T01:07:03.360Z,9.27
2018-11-13T01:09:31.992Z,9.40
2018-11-13T01:12:00.695Z,9.40
2018-11-13T01:14:29.316Z,8.77
2018-11-13T01:16:58.227Z,9.17
2018-11-13T01:19:37.290Z,9.40
2018-11-13T01:22:08.070Z,8.53
2018-11-13T01:24:37.959Z,8.80
2018-11-13T01:27:09.613Z,9.77
2018-11-13T01:29:38.238Z,8.73
2018-11-13T01:32:06.860Z,8.40
2018-11-13T01:34:35.481Z,8.20
2018-11-13T01:37:04.204Z,8.43
2018-11-13T01:39:32.800Z,8.33
2018-11-13T01:42:01.473Z,8.20
2018-11-13T01:44:30.058Z,7.50
2018-11-13T01:46:58.666Z,7.63
2018-11-13T01:49:27.334Z,7.27
2018-11-13T01:51:55.960Z,7.90
2018-11-13T01:54:24.627Z,6.87
2018-11-13T01:56:53.256Z,8.03
2018-11-13T01:59:22.062Z,7.73
2018-11-13T02:01:50.744Z,7.63
2018-11-13T02:04:19.336Z,7.57
2018-11-13T02:06:47.930Z,7.70
2018-11-13T02:09:16.572Z,6.93
2018-11-13T02:11:45.259Z,6.60
2018-11-13T02:14:13.945Z,6.60
2018-11-13T02:16:42.597Z,5.97
2018-11-13T02:19:11.211Z,6.90
2018-11-13T02:21:39.877Z,6.43
2018-11-13T02:24:08.582Z,6.63
2018-11-13T02:26:37.161Z,6.50
2018-11-13T02:29:06.170Z,6.57
2018-11-13T02:31:34.782Z,6.30
2018-11-13T02:34:03.414Z,7.07
2018-11-13T02:36:32.069Z,6.50
2018-11-13T02:39:00.703Z,5.80
2018-11-13T02:41:29.771Z,6.30
2018-11-13T02:43:58.547Z,6.23
2018-11-13T02:46:27.201Z,6.20
2018-11-13T02:48:56.314Z,5.37
2018-11-13T02:51:25.127Z,5.47
2018-11-13T02:53:53.732Z,4.60
2018-11-13T02:56:22.365Z,4.63
2018-11-13T02:58:50.979Z,4.70
2018-11-13T03:01:19.888Z,4.73
2018-11-13T03:03:48.537Z,4.50
2018-11-13T03:06:17.278Z,4.70
2018-11-13T03:08:45.909Z,4.20
2018-11-13T03:11:14.583Z,4.70
2018-11-13T03:13:43.303Z,4.87
2018-11-13T03:16:11.968Z,4.57
2018-11-13T03:18:40.727Z,4.63
2018-11-13T03:21:09.420Z,4.53
2018-11-13T03:23:38.061Z,3.83
2018-11-13T03:26:07.307Z,3.67
2018-11-13T03:28:36.007Z,2.57
2018-11-13T03:31:04.791Z,2.70
2018-11-13T03:33:33.333Z,2.33
2018-11-13T03:36:01.930Z,2.08
2018-11-13T03:38:39.100Z,1.87
2018-11-13T03:41:07.743Z,1.70
2018-11-13T03:43:36.332Z,1.60
2018-11-13T03:46:05.475Z,1.70
2018-11-13T03:48:34.418Z,1.50
2018-11-13T03:51:03.107Z,1.73
2018-11-13T03:53:31.765Z,1.70
2018-11-13T03:56:00.858Z,1.40
2018-11-13T03:58:29.501Z,1.33
2018-11-13T04:00:58.113Z,1.37
2018-11-13T04:03:26.770Z,1.30
2018-11-13T04:05:55.397Z,1.37
2018-11-13T04:08:24.100Z,1.20
2018-11-13T04:10:52.750Z,1.60
2018-11-13T04:13:21.373Z,1.40
2018-11-13T04:15:49.982Z,1.40
2018-11-13T04:18:18.618Z,1.47
2018-11-13T04:20:47.282Z,1.50
2018-11-13T04:23:15.988Z,1.70
2018-11-13T04:25:46.504Z,1.90
2018-11-13T04:28:16.671Z,1.87
2018-11-13T04:30:45.355Z,1.40
2018-11-13T04:33:14.266Z,1.93
2018-11-13T04:35:44.365Z,1.80
2018-11-13T04:38:14.474Z,1.80
2018-11-13T04:40:43.619Z,1.90
2018-11-13T04:43:12.639Z,1.53
2018-11-13T04:45:41.665Z,2.00
2018-11-13T04:48:10.845Z,2.00
2018-11-13T04:50:40.811Z,2.50
2018-11-13T04:53:09.963Z,2.00
2018-11-13T04:55:39.098Z,2.20
2018-11-13T04:58:08.324Z,2.30
2018-11-13T05:00:36.910Z,2.20
2018-11-13T05:03:05.602Z,1.90
2018-11-13T05:05:34.171Z,1.70
2018-11-13T05:08:02.779Z,2.10
2018-11-13T05:10:31.628Z,2.02
2018-11-13T05:13:00.253Z,2.10
2018-11-13T05:15:29.261Z,1.40
2018-11-13T05:17:58.354Z,1.83
2018-11-13T05:20:27.554Z,1.60
2018-11-13T05:22:58.402Z,1.83
2018-11-13T05:25:27.042Z,2.05
2018-11-13T05:27:55.704Z,2.17
2018-11-13T05:30:24.330Z,2.00
2018-11-13T05:32:52.943Z,1.63
2018-11-13T05:35:22.249Z,1.93
2018-11-13T05:37:50.970Z,2.20
2018-11-13T05:40:20.827Z,2.00
2018-11-13T05:42:49.756Z,2.00
2018-11-13T05:45:20.555Z,1.87
2018-11-13T05:47:49.179Z,2.45
2018-11-13T05:50:19.058Z,2.20
2018-11-13T05:52:49.258Z,1.77
2018-11-13T05:55:18.014Z,2.00
2018-11-13T05:57:46.891Z,2.27
2018-11-13T06:00:31.494Z,2.40
2018-11-13T06:03:00.845Z,2.50
2018-11-13T06:05:29.706Z,2.30
2018-11-13T06:07:58.489Z,2.50
2018-11-13T06:10:27.142Z,2.27
2018-11-13T06:12:55.737Z,2.27
2018-11-13T06:15:24.490Z,2.10
2018-11-13T06:17:53.153Z,2.40
2018-11-13T06:20:21.740Z,2.03
2018-11-13T06:22:50.639Z,2.10
2018-11-13T06:25:19.674Z,2.30
2018-11-13T06:27:49.467Z,2.20
2018-11-13T06:30:21.451Z,2.83
2018-11-13T06:32:50.693Z,2.80
2018-11-13T06:35:19.586Z,2.73
2018-11-13T06:37:48.231Z,3.03
2018-11-13T06:40:16.961Z,2.53
2018-11-13T06:42:45.567Z,2.63
2018-11-13T06:45:17.048Z,2.70
2018-11-13T06:47:46.352Z,3.20
2018-11-13T06:50:14.984Z,3.00
2018-11-13T06:52:44.448Z,3.10
2018-11-13T06:55:17.013Z,3.20
2018-11-13T06:57:45.867Z,3.13
2018-11-13T07:00:14.433Z,3.43
2018-11-13T07:02:43.035Z,4.13
2018-11-13T07:05:14.363Z,4.43
2018-11-13T07:07:43.225Z,3.83
2018-11-13T07:10:15.017Z,3.60
2018-11-13T07:12:44.981Z,3.50
2018-11-13T07:15:18.057Z,4.50
2018-11-13T07:17:48.016Z,4.53
2018-11-13T07:20:17.649Z,3.80
2018-11-13T07:22:46.416Z,3.67
2018-11-13T07:25:15.569Z,2.63
2018-11-13T07:27:44.901Z,3.00
2018-11-13T07:30:15.397Z,2.97
2018-11-13T07:32:45.388Z,3.03
2018-11-13T07:35:15.743Z,2.37
2018-11-13T07:37:48.560Z,2.37
2018-11-13T07:40:18.829Z,2.47
2018-11-13T07:42:49.819Z,2.20
2018-11-13T07:45:18.705Z,2.20
2018-11-13T07:47:47.995Z,2.13
2018-11-13T07:50:17.161Z,1.80
2018-11-13T07:52:46.000Z,2.10
2018-11-13T07:55:16.392Z,2.07
2018-11-13T07:57:45.344Z,1.93
2018-11-13T08:00:15.911Z,2.27
2018-11-13T08:02:46.779Z,2.07
2018-11-13T08:05:16.139Z,1.80
2018-11-13T08:07:47.273Z,1.80
2018-11-13T08:10:30.684Z,1.60
2018-11-13T08:13:05.262Z,2.10
2018-11-13T08:15:38.979Z,1.70
2018-11-13T08:18:08.708Z,1.50
2018-11-13T08:20:38.517Z,1.70
2018-11-13T08:23:08.681Z,1.67
2018-11-13T08:25:38.148Z,1.80
2018-11-13T08:28:07.171Z,1.70
2018-11-13T08:30:35.692Z,1.67
2018-11-13T08:33:04.541Z,1.80
2018-11-13T08:35:34.155Z,1.63
2018-11-13T08:38:03.524Z,1.90
2018-11-13T08:40:32.857Z,1.70
2018-11-13T08:43:02.701Z,1.83
2018-11-13T08:45:33.718Z,1.83
2018-11-13T08:48:05.020Z,2.17
2018-11-13T08:50:37.035Z,2.58
2018-11-13T08:53:06.380Z,2.23
2018-11-13T08:55:36.816Z,2.20
2018-11-13T08:58:06.474Z,2.07
2018-11-13T09:00:35.305Z,2.03
2018-11-13T09:03:06.071Z,1.70
2018-11-13T09:05:35.138Z,2.00
2018-11-13T09:08:08.626Z,1.80
2018-11-13T09:10:42.480Z,1.50
2018-11-13T09:13:11.626Z,0.97
2018-11-13T09:15:42.236Z,0.90
2018-11-13T09:18:13.049Z,1.00
2018-11-13T09:20:43.803Z,1.20
2018-11-13T09:23:13.132Z,1.00
2018-11-13T09:25:42.894Z,1.00
2018-11-13T09:28:26.684Z,1.37
2018-11-13T09:43:23.000Z,1.40
2018-11-13T09:46:52.913Z,1.60
2018-11-13T09:49:25.128Z,1.30
2018-11-13T09:51:57.361Z,1.20
2018-11-13T09:54:28.641Z,1.17
2018-11-13T09:56:58.071Z,1.50
2018-11-13T09:59:29.814Z,1.17
2018-11-13T10:01:59.408Z,0.90
2018-11-13T10:04:28.891Z,1.10
2018-11-13T10:06:57.850Z,0.90
2018-11-13T10:09:28.636Z,1.30
2018-11-13T10:12:01.640Z,1.27
2018-11-13T10:14:31.756Z,1.30
2018-11-13T10:17:00.417Z,1.17
2018-11-13T10:19:29.928Z,1.53
2018-11-13T10:21:58.966Z,0.90
2018-11-13T10:24:27.554Z,1.20
2018-11-13T10:26:57.249Z,1.00
2018-11-13T10:29:27.328Z,0.93
2018-11-13T10:31:55.974Z,0.90
2018-11-13T10:34:24.558Z,1.40
2018-11-13T10:36:53.090Z,2.00
2018-11-13T10:39:21.660Z,1.13
2018-11-13T10:41:50.200Z,1.00
2018-11-13T10:44:18.822Z,1.20
2018-11-13T10:46:47.413Z,1.00
2018-11-13T10:49:16.078Z,1.17
2018-11-13T10:51:44.566Z,1.03
2018-11-13T10:54:13.141Z,1.03
2018-11-13T10:56:41.700Z,1.20
2018-11-13T10:59:10.281Z,1.20
2018-11-13T11:01:44.212Z,1.10
2018-11-13T11:04:18.041Z,1.20
2018-11-13T11:06:46.634Z,1.43
2018-11-13T11:09:15.221Z,1.23
2018-11-13T11:11:43.764Z,1.40
2018-11-13T11:14:13.068Z,1.10
2018-11-13T11:16:41.617Z,1.43
2018-11-13T11:19:10.241Z,1.20
2018-11-13T11:21:38.841Z,1.13
2018-11-13T11:24:07.539Z,1.30
2018-11-13T11:26:36.056Z,1.23
2018-11-13T11:29:04.609Z,1.40
2018-11-13T11:31:33.185Z,1.37
2018-11-13T11:34:01.738Z,0.80
2018-11-13T11:36:30.287Z,0.80
2018-11-13T11:38:59.087Z,0.87
2018-11-13T11:41:27.619Z,0.80
2018-11-13T11:43:56.195Z,0.87
2018-11-13T11:46:24.862Z,0.80
2018-11-13T11:48:53.377Z,1.13
2018-11-13T11:51:21.965Z,1.10
2018-11-13T11:53:50.549Z,0.90
2018-11-13T11:56:19.094Z,0.70
2018-11-13T11:58:47.680Z,1.00
2018-11-13T12:01:16.274Z,0.90
2018-11-13T12:03:44.852Z,0.93
2018-11-13T12:06:13.462Z,0.93
2018-11-13T12:08:42.097Z,1.10
2018-11-13T12:11:10.649Z,1.17
2018-11-13T12:13:39.347Z,0.97
2018-11-13T12:16:08.089Z,1.00
2018-11-13T12:18:36.829Z,1.10
2018-11-13T12:21:05.648Z,1.10
2018-11-13T12:23:34.209Z,1.20
2018-11-13T12:26:02.844Z,1.30
2018-11-13T12:28:31.470Z,1.10
2018-11-13T12:31:00.066Z,1.63
2018-11-13T12:33:28.645Z,0.90
2018-11-13T12:35:57.243Z,1.40
2018-11-13T12:38:26.013Z,1.17
2018-11-13T12:40:54.697Z,1.27
2018-11-13T12:43:23.252Z,1.23
2018-11-13T12:45:51.845Z,1.17
2018-11-13T12:48:20.393Z,1.10
2018-11-13T12:50:54.308Z,1.27
2018-11-13T12:53:22.859Z,1.30
2018-11-13T12:55:51.634Z,1.00
2018-11-13T12:58:20.158Z,1.13
2018-11-13T13:00:48.811Z,1.27
2018-11-13T13:03:17.457Z,1.20
2018-11-13T13:05:46.048Z,1.20
2018-11-13T13:08:14.709Z,1.50
2018-11-13T13:10:43.360Z,1.13
2018-11-13T13:13:12.190Z,1.07
2018-11-13T13:15:40.988Z,1.47
2018-11-13T13:18:09.575Z,1.50
2018-11-13T13:20:38.183Z,1.20
2018-11-13T13:23:06.774Z,1.30
2018-11-13T13:25:35.499Z,1.40
2018-11-13T13:28:04.105Z,1.20
2018-11-13T13:30:32.722Z,1.27
2018-11-13T13:33:01.272Z,1.37
2018-11-13T13:36:04.160Z,1.23
2018-11-13T13:38:34.363Z,1.60
2018-11-13T13:41:03.814Z,1.40
2018-11-13T13:43:32.997Z,1.13
2018-11-13T13:46:01.619Z,1.60
2018-11-13T13:48:30.181Z,1.40
2018-11-13T13:50:58.789Z,1.37
2018-11-13T13:53:27.927Z,1.93
2018-11-13T13:55:56.565Z,1.47
2018-11-13T13:58:25.690Z,1.80
2018-11-13T14:00:55.453Z,1.60
2018-11-13T14:03:24.034Z,1.67
2018-11-13T14:05:52.677Z,1.80
2018-11-13T14:08:21.440Z,1.60
2018-11-13T14:10:50.504Z,1.60
2018-11-13T14:13:19.219Z,1.67
2018-11-13T14:15:47.956Z,1.17
2018-11-13T14:18:16.599Z,1.40
2018-11-13T14:20:45.251Z,1.80
2018-11-13T14:23:13.792Z,1.50
2018-11-13T14:25:42.376Z,2.10
2018-11-13T14:28:10.961Z,1.43
2018-11-13T14:30:39.559Z,2.07
2018-11-13T14:33:09.375Z,1.50
2018-11-13T14:35:40.072Z,1.40
2018-11-13T14:38:08.718Z,2.20
2018-11-13T14:40:41.883Z,1.53
2018-11-13T14:43:10.687Z,1.43
2018-11-13T14:45:39.488Z,1.60
2018-11-13T14:48:08.963Z,2.10
2018-11-13T14:50:37.989Z,1.60
2018-11-13T14:53:07.229Z,1.60
2018-11-13T14:55:37.147Z,1.43
2018-11-13T14:58:07.246Z,1.77
2018-11-13T15:00:36.745Z,1.70
2018-11-13T15:03:06.836Z,1.73
2018-11-13T15:05:35.806Z,1.60
2018-11-13T15:08:06.094Z,2.20
2018-11-13T15:10:49.017Z,1.53
2018-11-13T15:13:18.163Z,1.50
2018-11-13T15:15:47.069Z,1.53
2018-11-13T15:18:15.855Z,1.70
2018-11-13T15:20:45.197Z,1.80
2018-11-13T15:23:14.111Z,1.53
2018-11-13T15:25:42.676Z,1.40
2018-11-13T15:28:11.770Z,1.43
2018-11-13T15:30:43.851Z,1.43
2018-11-13T15:33:13.929Z,1.50
2018-11-13T15:35:42.520Z,1.50
2018-11-13T15:38:12.034Z,1.67
2018-11-13T15:40:40.601Z,1.50
2018-11-13T15:43:09.160Z,1.50
2018-11-13T15:45:37.891Z,1.70
2018-11-13T15:48:08.545Z,2.00
2018-11-13T15:50:37.830Z,1.67
2018-11-13T15:53:07.806Z,1.90
2018-11-13T15:55:36.421Z,2.10
2018-11-13T15:58:05.741Z,2.12
2018-11-13T16:00:36.366Z,2.30
2018-11-13T16:03:37.368Z,2.10
2018-11-13T16:06:07.644Z,2.43
2018-11-13T16:08:36.491Z,2.50
2018-11-13T16:11:05.147Z,2.33
2018-11-13T16:13:33.792Z,2.97
2018-11-13T16:16:03.742Z,2.23
2018-11-13T16:18:32.472Z,2.10
2018-11-13T16:21:01.163Z,2.40
2018-11-13T16:23:29.637Z,2.57
2018-11-13T16:25:58.331Z,3.00
2018-11-13T16:28:26.993Z,2.00
2018-11-13T16:30:55.775Z,2.57
2018-11-13T16:33:24.257Z,2.20
2018-11-13T16:35:53.146Z,2.55
2018-11-13T16:38:21.986Z,2.40
2018-11-13T16:40:50.459Z,2.80
2018-11-13T16:43:19.083Z,2.47
2018-11-13T16:45:47.708Z,2.50
2018-11-13T16:48:16.509Z,2.57
2018-11-13T16:50:44.967Z,2.63
2018-11-13T16:53:13.512Z,2.40
2018-11-13T16:55:47.541Z,2.83
2018-11-13T16:58:17.052Z,3.00
2018-11-13T17:00:45.872Z,2.63
2018-11-13T17:03:14.425Z,2.97
2018-11-13T17:05:43.095Z,2.80
2018-11-13T17:08:23.021Z,3.30
2018-11-13T17:10:52.308Z,3.07
2018-11-13T17:13:20.862Z,2.70
2018-11-13T17:15:49.546Z,3.30
2018-11-13T17:18:18.128Z,2.80
2018-11-13T17:20:46.705Z,2.83
2018-11-13T17:23:15.428Z,2.90
2018-11-13T17:25:44.186Z,2.90
2018-11-13T17:28:12.868Z,2.60
2018-11-13T17:30:41.450Z,2.70
2018-11-13T17:33:10.820Z,2.50
2018-11-13T17:35:39.555Z,2.60
2018-11-13T17:38:08.664Z,2.47
2018-11-13T17:40:37.929Z,2.50
2018-11-13T17:43:07.420Z,2.50
2018-11-13T17:45:37.518Z,2.50
2018-11-13T17:48:08.029Z,2.30
2018-11-13T17:50:39.990Z,2.27
2018-11-13T17:53:09.479Z,2.40
2018-11-13T17:55:38.454Z,3.00
2018-11-13T17:58:09.827Z,3.13
2018-11-13T18:00:43.703Z,2.50
2018-11-13T18:03:13.884Z,3.10
2018-11-13T18:05:43.543Z,3.00
2018-11-13T18:08:12.737Z,3.03
2018-11-13T18:10:42.364Z,3.57
2018-11-13T18:13:11.152Z,3.87
2018-11-13T18:15:39.782Z,4.17
2018-11-13T18:18:08.982Z,3.63
2018-11-13T18:20:40.016Z,4.30
2018-11-13T18:23:09.105Z,4.00
2018-11-13T18:25:37.738Z,4.10
2018-11-13T18:28:06.896Z,4.47
2018-11-13T18:30:36.954Z,4.63
2018-11-13T18:33:06.660Z,4.90
2018-11-13T18:35:36.621Z,5.73
2018-11-13T18:38:06.695Z,5.40
2018-11-13T18:40:35.354Z,5.20
2018-11-13T18:43:04.333Z,4.07
2018-11-13T18:45:34.655Z,4.30
2018-11-13T18:48:03.269Z,3.70
2018-11-13T18:53:36.095Z,3.17
2018-11-13T18:56:05.371Z,3.37
2018-11-13T18:58:34.085Z,3.77
2018-11-13T19:01:02.794Z,3.73
2018-11-13T19:03:31.483Z,3.40
2018-11-13T19:09:05.231Z,3.70
2018-11-13T19:11:33.960Z,3.57
2018-11-13T19:14:02.790Z,3.10
2018-11-13T19:16:32.068Z,3.37
2018-11-13T19:19:00.640Z,3.13
2018-11-13T19:21:29.236Z,3.20
2018-11-13T19:23:57.950Z,2.73
2018-11-13T19:26:26.501Z,2.57
2018-11-13T19:28:55.261Z,2.30
2018-11-13T19:31:24.087Z,2.50
2018-11-13T19:33:52.740Z,2.77
2018-11-13T19:36:21.740Z,2.30
2018-11-13T19:38:50.313Z,2.70
2018-11-13T19:41:19.100Z,2.60
2018-11-13T19:43:47.847Z,2.50
2018-11-13T19:46:16.581Z,2.63
2018-11-13T19:48:45.219Z,2.30
2018-11-13T19:51:13.841Z,3.00
2018-11-13T19:53:42.645Z,4.00
2018-11-13T19:56:11.279Z,4.47
2018-11-13T19:58:39.882Z,4.90
2018-11-13T20:01:08.590Z,5.30
2018-11-13T20:03:37.349Z,5.07
2018-11-13T20:06:06.122Z,5.23
2018-11-13T20:08:34.698Z,5.87
2018-11-13T20:11:03.394Z,5.17
2018-11-13T20:13:32.077Z,5.23
2018-11-13T20:16:00.945Z,5.80
2018-11-13T20:18:29.448Z,6.17
2018-11-13T20:20:58.519Z,5.63
2018-11-13T20:23:27.397Z,5.53
2018-11-13T20:25:56.056Z,5.60
2018-11-13T20:28:25.080Z,6.27
2018-11-13T20:30:53.806Z,5.23
2018-11-13T20:33:22.519Z,5.63
2018-11-13T20:35:53.863Z,5.80
2018-11-13T20:38:22.556Z,5.40
2018-11-13T20:40:54.849Z,4.73
2018-11-13T20:43:23.721Z,4.70
2018-11-13T20:45:52.285Z,4.67
2018-11-13T20:48:21.329Z,5.00
2018-11-13T20:50:50.264Z,4.87
2018-11-13T20:53:19.010Z,4.87
2018-11-13T20:55:47.895Z,4.47
2018-11-13T20:58:16.629Z,5.13
2018-11-13T21:00:45.419Z,4.27
2018-11-13T21:03:15.414Z,4.60
2018-11-13T21:05:44.148Z,5.20
2018-11-13T21:08:12.881Z,5.03
2018-11-13T21:10:41.692Z,4.40
2018-11-13T21:13:10.514Z,5.00
2018-11-13T21:15:39.323Z,4.30
2018-11-13T21:18:08.129Z,4.77
2018-11-13T21:20:36.929Z,4.20
2018-11-13T21:23:05.941Z,4.80
2018-11-13T21:25:34.662Z,4.80
2018-11-13T21:28:05.479Z,4.80
2018-11-13T21:30:34.448Z,4.70
2018-11-13T21:33:03.319Z,5.03
2018-11-13T21:35:32.193Z,5.10
2018-11-13T21:38:01.519Z,5.07
2018-11-13T21:40:30.229Z,5.00
2018-11-13T21:42:59.151Z,5.00
2018-11-13T21:45:28.784Z,5.40
2018-11-13T21:47:57.544Z,4.77
2018-11-13T21:50:27.564Z,4.63
2018-11-13T21:52:56.409Z,4.23
2018-11-13T21:55:26.579Z,3.50
2018-11-13T21:57:55.363Z,3.20
2018-11-13T22:00:26.404Z,3.27
2018-11-13T22:02:57.504Z,3.60
2018-11-13T22:05:27.316Z,3.30
2018-11-13T22:07:56.047Z,3.90
2018-11-13T22:10:24.730Z,4.30
2018-11-13T22:12:56.648Z,3.47
2018-11-13T22:15:26.363Z,3.87
2018-11-13T22:17:54.989Z,2.93
2018-11-13T22:20:24.286Z,3.97
2018-11-13T22:22:55.377Z,3.80
2018-11-13T22:25:25.207Z,3.13
2018-11-13T22:27:55.401Z,3.90
2018-11-13T22:30:25.153Z,3.70
2018-11-13T22:32:53.791Z,3.87
2018-11-13T22:35:22.855Z,3.70
2018-11-13T22:37:51.512Z,3.53
2018-11-13T22:40:23.434Z,3.80
2018-11-13T22:42:52.067Z,4.20
2018-11-13T22:45:22.202Z,3.80
2018-11-13T22:47:51.169Z,3.50
2018-11-13T22:50:27.779Z,3.37
2018-11-13T22:52:56.689Z,3.17
2018-11-13T22:55:25.401Z,3.57
2018-11-13T22:57:55.095Z,3.90
2018-11-13T23:00:38.736Z,3.60
2018-11-13T23:03:09.104Z,3.20
2018-11-13T23:05:37.889Z,3.93
2018-11-13T23:08:08.023Z,4.00
2018-11-13T23:10:36.624Z,3.67
2018-11-13T23:13:05.884Z,3.40
2018-11-13T23:15:34.010Z,3.33
2018-11-13T23:18:02.694Z,3.80
2018-11-13T23:20:31.414Z,3.73
2018-11-13T23:23:00.210Z,3.67
2018-11-13T23:25:29.515Z,3.80
2018-11-13T23:27:58.362Z,3.10
2018-11-13T23:30:27.998Z,3.83
2018-11-13T23:32:57.477Z,3.40
2018-11-13T23:35:26.085Z,3.70
2018-11-13T23:37:57.072Z,3.47
2018-11-13T23:40:27.152Z,4.10
2018-11-13T23:42:55.794Z,3.70
2018-11-13T23:45:25.681Z,3.30
2018-11-13T23:47:54.421Z,3.67
2018-11-13T23:50:23.020Z,3.73
2018-11-13T23:52:52.349Z,3.20
2018-11-13T23:55:20.984Z,3.17
2018-11-13T23:57:49.771Z,3.57
